Time;durP1;ratioP1;P1;durP2;ratioP2;P2;SDS_P1;SDS_P2;PMS_P1;PMS_P2;Temp;Humidity;BMP_temperature;BMP_pressure;BME280_temperature;BME280_humidity;BME280_pressure;Samples;Min_cycle;Max_cycle;Signal;HPM_P1;HPM_P2
2021/07/28 00:00:45;;;;;;;;;;;;;;;26.92;43.17;99866.03;5090990;28;19916;-37
2021/07/28 00:03:10;;;;;;;;;;;;;;;27.45;42.25;99866.41;5090978;28;20451;-37
2021/07/28 00:05:35;;;;;;;;;;;;;;;27.52;42.05;99864.03;5091017;28;20019;-36
2021/07/28 00:08:01;;;;;;;;;;;;;;;27.58;41.92;99856.50;5091037;28;19919;-36
2021/07/28 00:10:26;;;;;;;;;;;;;;;27.35;42.36;99855.75;5090822;28;20307;-37
2021/07/28 00:12:51;;;;;;;;;;;;;;;27.16;42.70;99854.00;5090833;28;19972;-35
2021/07/28 00:15:17;;;;;;;;;;;;;;;27.18;42.81;99851.75;5090879;28;19916;-36
2021/07/28 00:18:08;;;;;;;;;;;;;;;27.80;41.68;99861.09;5090893;28;20315;-37
2021/07/28 00:23:14;;;;;;;;;;;;;;;27.17;42.71;99855.63;5090824;28;19912;-36
2021/07/28 00:25:39;;;;;;;;;;;;;;;27.59;42.29;99858.94;5090723;28;19938;-36
2021/07/28 00:28:05;;;;;;;;;;;;;;;27.79;41.79;99849.34;5090873;28;20372;-36
2021/07/28 00:30:30;;;;;;;;;;;;;;;27.85;41.73;99850.84;5090768;28;19939;-37
2021/07/28 00:32:55;;;;;;;;;;;;;;;27.83;41.71;99849.53;5091008;28;20385;-37
2021/07/28 00:35:21;;;;;;;;;;;;;;;27.72;42.20;99846.28;5090620;28;19919;-37
2021/07/28 00:37:46;;;;;;;;;;;;;;;27.97;41.35;99847.53;5090676;28;20264;-38
2021/07/28 00:40:12;;;;;;;;;;;;;;;28.31;40.41;99848.72;5090948;28;19993;-37
2021/07/28 00:42:37;;;;;;;;;;;;;;;27.84;41.97;99851.94;5090874;28;19924;-37
2021/07/28 00:45:03;;;;;;;;;;;;;;;27.72;42.25;99853.66;5111123;28;19920;-38
2021/07/28 00:47:28;;;;;;;;;;;;;;;27.90;41.68;99851.84;5111147;28;19912;-37
2021/07/28 00:49:53;;;;;;;;;;;;;;;27.83;41.87;99847.59;5110958;28;20245;-37
2021/07/28 00:52:19;;;;;;;;;;;;;;;27.92;41.60;99846.84;5110807;28;19999;-38
2021/07/28 00:54:44;;;;;;;;;;;;;;;27.99;41.47;99850.75;5111042;28;19918;-37
2021/07/28 00:57:09;;;;;;;;;;;;;;;28.40;40.36;99852.25;5110872;28;19915;-37
2021/07/28 00:59:35;;;;;;;;;;;;;;;28.42;40.47;99841.78;5109598;28;19955;-37
2021/07/28 01:02:00;;;;;;;;;;;;;;;28.14;41.49;99840.47;5110829;28;20359;-37
2021/07/28 01:04:25;;;;;;;;;;;;;;;27.69;42.52;99846.91;5110578;28;19923;-37
2021/07/28 01:06:51;;;;;;;;;;;;;;;27.47;42.75;99848.59;5110819;28;19911;-37
2021/07/28 01:09:16;;;;;;;;;;;;;;;27.62;42.39;99838.34;5110786;28;19919;-36
2021/07/28 01:11:41;;;;;;;;;;;;;;;27.56;42.59;99845.09;5110766;28;19919;-37
2021/07/28 01:14:07;;;;;;;;;;;;;;;27.49;42.70;99843.63;5110386;28;19920;-37
2021/07/28 01:16:38;;;;;;;;;;;;;;;27.59;42.65;99842.53;5110772;28;20018;-39
2021/07/28 01:19:07;;;;;;;;;;;;;;;27.75;42.43;99842.09;5110640;28;19950;-37
2021/07/28 01:21:33;;;;;;;;;;;;;;;28.23;41.02;99838.56;5109627;28;19912;-37
2021/07/28 01:23:58;;;;;;;;;;;;;;;28.17;41.17;99840.63;5113540;28;20409;-36
2021/07/28 01:26:23;;;;;;;;;;;;;;;27.96;41.53;99842.38;5113416;28;19972;-37
2021/07/28 01:28:48;;;;;;;;;;;;;;;27.85;41.96;99845.38;5113048;28;20002;-38
2021/07/28 01:31:17;;;;;;;;;;;;;;;28.02;41.54;99841.88;5114306;28;20303;-37
2021/07/28 01:33:45;;;;;;;;;;;;;;;28.08;41.39;99839.81;5114079;28;19962;-36
2021/07/28 01:36:11;;;;;;;;;;;;;;;28.02;41.07;99838.34;5114171;28;20399;-37
2021/07/28 01:38:37;;;;;;;;;;;;;;;27.90;41.65;99838.16;5113044;28;19919;-37
2021/07/28 01:41:03;;;;;;;;;;;;;;;27.99;41.15;99850.75;5114161;28;19955;-38
2021/07/28 01:43:29;;;;;;;;;;;;;;;28.04;41.25;99847.03;5106583;28;19912;-37
2021/07/28 01:45:55;;;;;;;;;;;;;;;28.33;40.55;99849.22;5093756;28;19912;-38
2021/07/28 01:48:20;;;;;;;;;;;;;;;27.93;42.66;99851.19;5092305;28;19960;-37
2021/07/28 01:50:45;;;;;;;;;;;;;;;27.80;42.57;99853.72;5093565;28;19919;-38
2021/07/28 01:53:11;;;;;;;;;;;;;;;27.90;42.82;99851.84;5093516;28;19916;-38
2021/07/28 01:55:36;;;;;;;;;;;;;;;27.95;42.34;99854.41;5093542;28;19973;-37
2021/07/28 01:58:01;;;;;;;;;;;;;;;27.67;43.22;99851.88;5093507;28;19916;-37
2021/07/28 02:00:27;;;;;;;;;;;;;;;27.72;42.71;99857.22;5093474;28;19916;-38
2021/07/28 02:02:52;;;;;;;;;;;;;;;27.74;42.72;99854.16;5093137;28;19912;-37
2021/07/28 02:05:18;;;;;;;;;;;;;;;28.20;41.68;99859.16;5093356;28;20265;-38
2021/07/28 02:07:43;;;;;;;;;;;;;;;27.45;42.92;99850.00;5093245;28;19916;-37
2021/07/28 02:10:09;;;;;;;;;;;;;;;26.88;44.09;99859.59;5093154;28;20003;-37
2021/07/28 02:12:34;;;;;;;;;;;;;;;26.85;42.75;99854.75;5093015;28;19939;-37
2021/07/28 02:14:59;;;;;;;;;;;;;;;26.74;42.64;99847.09;5092824;28;20346;-37
2021/07/28 02:17:25;;;;;;;;;;;;;;;27.01;41.97;99844.25;5092888;28;19916;-36
2021/07/28 02:19:50;;;;;;;;;;;;;;;26.87;42.57;99836.13;5092572;28;20407;-37
2021/07/28 02:22:15;;;;;;;;;;;;;;;27.15;42.33;99843.38;5092768;28;20359;-36
2021/07/28 02:24:41;;;;;;;;;;;;;;;26.95;42.56;99847.44;5092295;28;19916;-36
2021/07/28 02:27:06;;;;;;;;;;;;;;;26.92;43.23;99836.00;5092521;28;20010;-37
2021/07/28 02:29:32;;;;;;;;;;;;;;;26.88;43.71;99847.84;5092607;28;19953;-37
2021/07/28 02:31:57;;;;;;;;;;;;;;;27.11;43.26;99848.66;5092884;28;19932;-37
2021/07/28 02:34:22;;;;;;;;;;;;;;;27.19;42.96;99849.81;5091172;28;20387;-37
2021/07/28 02:36:48;;;;;;;;;;;;;;;27.13;43.13;99842.88;5092185;28;20007;-37
2021/07/28 02:39:13;;;;;;;;;;;;;;;27.81;41.05;99849.03;5092381;28;19912;-37
2021/07/28 02:41:38;;;;;;;;;;;;;;;27.20;42.84;99849.50;5091924;28;20272;-36
2021/07/28 02:44:04;;;;;;;;;;;;;;;27.16;43.35;99851.25;5104519;28;19935;-37
2021/07/28 02:46:29;;;;;;;;;;;;;;;27.14;43.70;99850.75;5112575;28;19912;-37
2021/07/28 02:48:54;;;;;;;;;;;;;;;27.15;43.74;99857.03;5112724;28;19923;-37
2021/07/28 02:51:19;;;;;;;;;;;;;;;27.13;44.13;99859.25;5112244;28;20284;-37
2021/07/28 02:53:45;;;;;;;;;;;;;;;27.15;43.89;99854.28;5112439;27;20001;-37
2021/07/28 02:56:10;;;;;;;;;;;;;;;27.39;42.28;99815.75;5112036;28;20405;-37
2021/07/28 02:58:35;;;;;;;;;;;;;;;26.59;45.45;99851.78;5112439;27;19912;-37
2021/07/28 03:01:01;;;;;;;;;;;;;;;26.40;46.23;99853.84;5112322;28;19919;-37
2021/07/28 03:03:26;;;;;;;;;;;;;;;26.64;45.79;99850.88;5111621;28;19911;-36
2021/07/28 03:05:51;;;;;;;;;;;;;;;26.84;45.31;99849.59;5111838;28;19928;-37
2021/07/28 03:08:17;;;;;;;;;;;;;;;26.99;44.86;99842.97;5111895;28;19951;-37
2021/07/28 03:10:42;;;;;;;;;;;;;;;26.85;44.76;99843.03;5112260;28;19912;-37
2021/07/28 03:13:07;;;;;;;;;;;;;;;27.32;43.66;99845.44;5112102;28;19915;-37
2021/07/28 03:15:33;;;;;;;;;;;;;;;27.09;44.66;99850.88;5112192;28;19911;-37
2021/07/28 03:17:58;;;;;;;;;;;;;;;26.94;45.14;99848.53;5112207;28;19915;-36
2021/07/28 03:20:23;;;;;;;;;;;;;;;27.09;44.81;99854.44;5111567;28;19930;-36
2021/07/28 03:22:48;;;;;;;;;;;;;;;26.56;45.85;99857.03;5112300;28;19968;-36
2021/07/28 03:25:14;;;;;;;;;;;;;;;27.06;45.05;99857.78;5112088;28;20418;-38
2021/07/28 03:27:39;;;;;;;;;;;;;;;26.70;45.85;99857.84;5111899;28;19926;-37
2021/07/28 03:30:05;;;;;;;;;;;;;;;26.66;46.52;99856.84;5110579;28;19912;-36
2021/07/28 03:32:30;;;;;;;;;;;;;;;26.47;46.95;99854.25;5111718;28;19920;-37
2021/07/28 03:34:55;;;;;;;;;;;;;;;26.60;46.62;99853.44;5111473;28;19912;-36
2021/07/28 03:37:21;;;;;;;;;;;;;;;26.74;46.06;99850.63;5111034;28;19923;-36
2021/07/28 03:39:46;;;;;;;;;;;;;;;26.97;45.52;99853.38;5111460;28;20006;-37
2021/07/28 03:42:11;;;;;;;;;;;;;;;27.28;45.00;99862.47;5111380;28;19918;-37
2021/07/28 03:44:36;;;;;;;;;;;;;;;27.55;44.45;99855.22;5111162;28;20018;-37
2021/07/28 03:47:02;;;;;;;;;;;;;;;27.07;45.47;99856.69;5110771;28;19912;-37
2021/07/28 03:49:27;;;;;;;;;;;;;;;27.27;44.22;99852.66;5102685;28;19920;-37
2021/07/28 03:51:52;;;;;;;;;;;;;;;27.33;43.85;99847.84;5090475;28;19912;-37
2021/07/28 03:54:18;;;;;;;;;;;;;;;27.29;42.93;99853.13;5090179;28;20273;-36
2021/07/28 03:56:43;;;;;;;;;;;;;;;27.45;42.17;99850.81;5090375;28;20398;-37
2021/07/28 03:59:08;;;;;;;;;;;;;;;27.71;41.14;99855.59;5090404;28;20298;-37
2021/07/28 04:01:34;;;;;;;;;;;;;;;27.76;40.91;99860.94;5090048;28;19973;-37
2021/07/28 04:03:59;;;;;;;;;;;;;;;27.97;40.43;99860.38;5090521;28;19969;-37
2021/07/28 04:06:24;;;;;;;;;;;;;;;28.12;40.45;99865.41;5090549;28;19918;-37
2021/07/28 04:08:50;;;;;;;;;;;;;;;28.77;39.20;99861.00;5090237;28;20379;-36
2021/07/28 04:11:15;;;;;;;;;;;;;;;28.61;40.75;99860.66;5089781;28;20371;-37
2021/07/28 04:13:40;;;;;;;;;;;;;;;28.38;40.64;99857.25;5089706;28;19990;-37
2021/07/28 04:16:06;;;;;;;;;;;;;;;28.47;40.11;99860.00;5089935;28;20375;-37
2021/07/28 04:18:31;;;;;;;;;;;;;;;28.65;40.07;99867.13;5087330;28;20003;-37
2021/07/28 04:20:57;;;;;;;;;;;;;;;28.81;39.44;99856.50;5088676;28;19922;-37
2021/07/28 04:23:22;;;;;;;;;;;;;;;29.24;38.53;99858.41;5089451;28;20023;-36
2021/07/28 04:25:47;;;;;;;;;;;;;;;29.46;37.72;99864.00;5089360;28;19923;-37
2021/07/28 04:28:13;;;;;;;;;;;;;;;29.54;36.96;99863.94;5089547;28;19912;-37
2021/07/28 04:30:38;;;;;;;;;;;;;;;29.50;37.39;99860.25;5089374;28;19980;-36
2021/07/28 04:33:03;;;;;;;;;;;;;;;29.73;36.94;99871.00;5090275;28;19916;-38
2021/07/28 04:35:28;;;;;;;;;;;;;;;29.86;36.85;99875.47;5077929;28;20395;-37
2021/07/28 04:37:54;;;;;;;;;;;;;;;30.19;36.60;99872.06;5081849;28;19917;-37
2021/07/28 04:40:19;;;;;;;;;;;;;;;30.42;36.41;99867.09;5083759;28;20407;-37
2021/07/28 04:42:44;;;;;;;;;;;;;;;30.58;36.15;99862.63;5091430;28;20064;-37
2021/07/28 04:45:10;;;;;;;;;;;;;;;30.84;35.16;99871.78;5109318;28;19912;-36
2021/07/28 04:47:35;;;;;;;;;;;;;;;30.86;35.60;99875.78;5109615;28;19916;-37
2021/07/28 04:50:00;;;;;;;;;;;;;;;30.96;34.97;99872.69;5109742;28;19916;-37
2021/07/28 04:52:26;;;;;;;;;;;;;;;31.23;34.46;99855.94;5109038;28;19912;-37
2021/07/28 04:54:52;;;;;;;;;;;;;;;31.66;33.48;99868.41;5108835;28;19957;-37
2021/07/28 04:57:17;;;;;;;;;;;;;;;31.81;33.71;99870.47;5108275;28;20323;-37
2021/07/28 04:59:42;;;;;;;;;;;;;;;31.95;33.43;99864.63;5111909;28;19918;-37
2021/07/28 05:02:08;;;;;;;;;;;;;;;31.76;33.54;99874.25;5112060;28;20014;-36
2021/07/28 05:04:33;;;;;;;;;;;;;;;31.81;33.48;99869.66;5111834;28;19916;-37
2021/07/28 05:06:58;;;;;;;;;;;;;;;31.82;33.41;99872.09;5111981;28;20360;-38
2021/07/28 05:09:24;;;;;;;;;;;;;;;32.03;33.09;99869.25;5111729;28;20276;-38
2021/07/28 05:11:49;;;;;;;;;;;;;;;32.43;32.62;99876.75;5111540;28;19912;-38
2021/07/28 05:14:14;;;;;;;;;;;;;;;33.33;31.17;99871.06;5113043;28;20010;-36
2021/07/28 05:16:39;;;;;;;;;;;;;;;33.10;31.40;99868.06;5113114;28;20392;-37
2021/07/28 05:19:05;;;;;;;;;;;;;;;32.95;31.67;99871.56;5113029;28;19924;-37
2021/07/28 05:21:30;;;;;;;;;;;;;;;33.00;31.60;99866.59;5113064;27;20027;-38
2021/07/28 05:23:55;;;;;;;;;;;;;;;33.30;31.22;99866.22;5112994;28;20363;-37
2021/07/28 05:26:22;;;;;;;;;;;;;;;33.63;30.72;99874.22;5112477;28;20805;-37
2021/07/28 05:28:48;;;;;;;;;;;;;;;34.39;29.59;99876.81;5112963;28;20306;-37
2021/07/28 05:31:15;;;;;;;;;;;;;;;33.60;30.40;99872.13;5113220;28;19919;-38
2021/07/28 05:33:40;;;;;;;;;;;;;;;33.92;29.90;99883.19;5112834;28;19931;-37
2021/07/28 05:36:06;;;;;;;;;;;;;;;33.97;29.87;99877.41;5112853;28;20356;-37
2021/07/28 05:38:31;;;;;;;;;;;;;;;34.30;29.57;99890.00;5111403;28;19911;-37
2021/07/28 05:40:56;;;;;;;;;;;;;;;34.57;29.17;99888.22;5112858;28;19931;-38
2021/07/28 05:43:25;;;;;;;;;;;;;;;35.38;28.18;99886.69;5106168;28;19912;-38
2021/07/28 05:45:51;;;;;;;;;;;;;;;34.92;28.28;99887.41;5092029;28;19924;-38
2021/07/28 05:48:16;;;;;;;;;;;;;;;34.65;29.15;99880.88;5091896;28;19919;-37
2021/07/28 05:50:42;;;;;;;;;;;;;;;35.08;28.32;99884.53;5091881;28;19912;-38
2021/07/28 05:53:07;;;;;;;;;;;;;;;35.42;28.06;99879.25;5091894;28;19938;-38
2021/07/28 05:55:32;;;;;;;;;;;;;;;36.25;26.98;99881.41;5091848;28;19912;-38
2021/07/28 05:57:59;;;;;;;;;;;;;;;36.34;26.45;99876.38;5092178;28;19916;-38
2021/07/28 06:00:24;;;;;;;;;;;;;;;35.55;27.02;99874.34;5091992;28;19912;-36
2021/07/28 06:02:50;;;;;;;;;;;;;;;35.26;27.42;99878.56;5091844;28;20015;-38
2021/07/28 06:05:15;;;;;;;;;;;;;;;35.37;27.86;99879.56;5091883;28;19919;-38
2021/07/28 06:07:40;;;;;;;;;;;;;;;35.90;26.80;99868.59;5092135;28;19977;-38
2021/07/28 06:10:06;;;;;;;;;;;;;;;36.23;26.45;99871.88;5091382;28;19961;-37
2021/07/28 06:12:32;;;;;;;;;;;;;;;36.30;26.26;99869.22;5091775;28;19912;-38
2021/07/28 06:14:57;;;;;;;;;;;;;;;36.08;26.29;99860.59;5092029;28;19912;-36
2021/07/28 06:17:22;;;;;;;;;;;;;;;36.40;26.46;99871.31;5091906;28;19916;-37
2021/07/28 06:19:48;;;;;;;;;;;;;;;37.49;25.03;99860.28;5091560;28;20011;-38
2021/07/28 06:22:13;;;;;;;;;;;;;;;37.61;24.47;99862.78;5091390;28;19916;-38
2021/07/28 06:24:38;;;;;;;;;;;;;;;37.17;24.97;99869.13;5089953;28;19970;-38
2021/07/28 06:27:04;;;;;;;;;;;;;;;37.02;24.94;99870.13;5091322;28;19919;-38
2021/07/28 06:29:29;;;;;;;;;;;;;;;36.45;25.55;99853.59;5091939;28;19912;-38
2021/07/28 06:31:54;;;;;;;;;;;;;;;37.00;25.12;99864.94;5091325;28;19944;-38
2021/07/28 06:34:20;;;;;;;;;;;;;;;37.06;24.83;99868.97;5090984;28;20010;-38
2021/07/28 06:36:45;;;;;;;;;;;;;;;37.11;25.03;99868.63;5091313;28;19923;-38
2021/07/28 06:39:10;;;;;;;;;;;;;;;37.31;25.13;99857.34;5091119;28;19912;-38
2021/07/28 06:41:36;;;;;;;;;;;;;;;37.58;24.57;99860.75;5091126;28;19919;-38
2021/07/28 06:44:01;;;;;;;;;;;;;;;38.27;23.52;99864.84;5091011;28;19919;-39
2021/07/28 06:46:26;;;;;;;;;;;;;;;37.99;24.04;99862.69;5090794;28;19924;-39
2021/07/28 06:48:52;;;;;;;;;;;;;;;37.94;24.16;99869.38;5089563;28;19912;-39
2021/07/28 06:51:17;;;;;;;;;;;;;;;37.74;24.20;99857.75;5091358;28;20010;-39
2021/07/28 06:53:43;;;;;;;;;;;;;;;37.97;23.94;99857.50;5090697;28;19916;-37
2021/07/28 06:56:08;;;;;;;;;;;;;;;38.94;23.04;99863.56;5107983;28;20447;-37
2021/07/28 06:58:33;;;;;;;;;;;;;;;38.47;23.43;99860.56;5110954;28;19916;-38
2021/07/28 07:01:00;;;;;;;;;;;;;;;38.02;24.12;99859.09;5111171;28;19962;-38
2021/07/28 07:03:25;;;;;;;;;;;;;;;37.81;24.36;99857.78;5111110;28;19912;-36
2021/07/28 07:05:50;;;;;;;;;;;;;;;38.04;24.02;99851.19;5093072;28;19939;-39
2021/07/28 07:08:16;;;;;;;;;;;;;;;38.48;23.50;99853.84;5090631;28;19930;-37
2021/07/28 07:10:41;;;;;;;;;;;;;;;38.03;24.11;99847.63;5099801;28;19944;-38
2021/07/28 07:13:06;;;;;;;;;;;;;;;37.20;25.40;99848.91;5099936;28;20014;-38
2021/07/28 07:15:32;;;;;;;;;;;;;;;37.34;25.09;99851.84;5104358;28;19912;-38
2021/07/28 07:17:57;;;;;;;;;;;;;;;37.83;24.48;99847.06;5093596;28;19999;-39
2021/07/28 07:20:22;;;;;;;;;;;;;;;38.76;23.79;99860.72;5105331;28;20300;-39
2021/07/28 07:22:47;;;;;;;;;;;;;;;38.69;23.72;99863.44;5098148;28;20083;-39
2021/07/28 07:25:13;;;;;;;;;;;;;;;38.57;23.69;99856.28;5099131;28;19931;-39
2021/07/28 07:27:40;;;;;;;;;;;;;;;38.74;23.56;99851.97;5090309;28;19990;-39
2021/07/28 07:30:06;;;;;;;;;;;;;;;39.23;23.53;99855.28;5106614;28;19950;-38
2021/07/28 07:32:31;;;;;;;;;;;;;;;39.18;23.16;99850.09;5095575;28;19984;-37
2021/07/28 07:35:00;;;;;;;;;;;;;;;38.92;23.89;99855.59;5110612;28;19915;-39
2021/07/28 07:37:25;;;;;;;;;;;;;;;38.63;24.37;99843.59;5097873;28;19912;-38
2021/07/28 07:39:51;;;;;;;;;;;;;;;38.79;23.39;99846.03;5107263;28;20398;-38
2021/07/28 07:42:16;;;;;;;;;;;;;;;39.37;22.84;99844.16;5077508;28;19955;-38
2021/07/28 07:44:45;;;;;;;;;;;;;;;40.17;22.23;99839.31;5100253;28;19999;-38
2021/07/28 07:47:11;;;;;;;;;;;;;;;39.76;22.48;99846.16;5099501;28;19924;-38
2021/07/28 07:49:36;;;;;;;;;;;;;;;39.73;22.47;99826.66;5105645;28;20290;-38
2021/07/28 07:52:02;;;;;;;;;;;;;;;39.46;23.38;99835.44;5111348;28;19911;-38
2021/07/28 07:54:27;;;;;;;;;;;;;;;39.36;22.98;99841.78;5111708;28;19916;-39
2021/07/28 07:56:53;;;;;;;;;;;;;;;40.15;22.28;99822.22;5110480;28;20417;-37
2021/07/28 07:59:18;;;;;;;;;;;;;;;40.20;22.28;99827.38;5111485;28;19915;-38
2021/07/28 08:01:43;;;;;;;;;;;;;;;39.97;22.02;99825.84;5093031;28;19951;-39
2021/07/28 08:04:09;;;;;;;;;;;;;;;39.98;21.96;99821.06;5090829;28;19918;-39
2021/07/28 08:06:34;;;;;;;;;;;;;;;40.38;21.70;99828.13;5090599;28;19943;-39
2021/07/28 08:09:01;;;;;;;;;;;;;;;40.40;22.08;99811.81;5090687;28;19912;-39
2021/07/28 08:11:26;;;;;;;;;;;;;;;41.05;20.84;99811.44;5089044;28;20245;-39
2021/07/28 08:13:51;;;;;;;;;;;;;;;40.56;21.57;99816.13;5090442;28;19916;-38
2021/07/28 08:16:20;;;;;;;;;;;;;;;40.23;21.73;99801.47;5090968;28;19936;-40
2021/07/28 08:18:46;;;;;;;;;;;;;;;40.43;22.04;99810.97;5088522;28;19920;-38
2021/07/28 08:21:11;;;;;;;;;;;;;;;40.73;21.85;99801.28;5088623;28;19916;-40
2021/07/28 08:23:37;;;;;;;;;;;;;;;40.19;22.22;99804.28;5089102;28;19912;-39
2021/07/28 08:26:02;;;;;;;;;;;;;;;40.13;22.73;99799.53;5089118;28;19937;-38
2021/07/28 08:28:27;;;;;;;;;;;;;;;39.86;23.05;99789.63;5088497;28;20014;-38
2021/07/28 08:30:55;;;;;;;;;;;;;;;40.00;22.08;99796.41;5088637;28;19912;-38
2021/07/28 08:33:22;;;;;;;;;;;;;;;40.04;21.69;99791.59;5093069;28;20279;-38
2021/07/28 08:35:47;;;;;;;;;;;;;;;40.49;22.11;99799.41;5094847;28;19912;-39
2021/07/28 08:38:12;;;;;;;;;;;;;;;40.42;21.51;99789.91;5094622;28;20281;-39
2021/07/28 08:40:37;;;;;;;;;;;;;;;39.78;22.00;99790.06;5094761;28;19999;-38
2021/07/28 08:43:03;;;;;;;;;;;;;;;39.24;22.32;99790.91;5098204;28;19912;-40
2021/07/28 08:45:28;;;;;;;;;;;;;;;39.27;22.94;99792.06;5113553;28;19916;-39
2021/07/28 08:47:53;;;;;;;;;;;;;;;39.76;21.89;99784.13;5114880;28;19912;-38
2021/07/28 08:50:19;;;;;;;;;;;;;;;40.61;20.97;99788.59;5114756;27;19915;-38
2021/07/28 08:52:44;;;;;;;;;;;;;;;41.38;19.76;99778.53;5114436;28;20291;-39
2021/07/28 08:55:09;;;;;;;;;;;;;;;40.84;20.46;99784.47;5114751;28;19918;-38
2021/07/28 08:57:35;;;;;;;;;;;;;;;40.08;20.98;99772.91;5114655;28;19912;-39
2021/07/28 09:00:00;;;;;;;;;;;;;;;39.78;20.54;99770.56;5114795;28;19912;-39
2021/07/28 09:02:26;;;;;;;;;;;;;;;39.61;21.38;99763.84;5114674;28;19919;-39
2021/07/28 09:04:51;;;;;;;;;;;;;;;40.05;20.65;99760.56;5114193;28;19955;-39
2021/07/28 09:07:18;;;;;;;;;;;;;;;40.04;20.49;99758.97;5114338;28;19915;-37
2021/07/28 09:09:50;;;;;;;;;;;;;;;40.02;20.30;99760.56;5114196;28;19981;-38
2021/07/28 09:12:15;;;;;;;;;;;;;;;40.18;20.14;99762.91;5114392;28;20411;-37
2021/07/28 09:14:49;;;;;;;;;;;;;;;40.35;19.31;99752.91;5114167;28;19923;-39
2021/07/28 09:17:18;;;;;;;;;;;;;;;40.51;19.11;99755.19;5114150;28;20332;-38
2021/07/28 09:19:46;;;;;;;;;;;;;;;41.09;19.39;99750.84;5113953;28;20398;-38
2021/07/28 09:22:11;;;;;;;;;;;;;;;42.01;18.90;99739.16;5114156;28;20006;-39
2021/07/28 09:24:37;;;;;;;;;;;;;;;41.30;20.24;99737.91;5114171;28;19954;-39
2021/07/28 09:27:03;;;;;;;;;;;;;;;41.14;20.29;99732.84;5114129;28;20276;-39
2021/07/28 09:29:29;;;;;;;;;;;;;;;41.25;20.51;99733.56;5113800;28;19915;-39
2021/07/28 09:32:07;;;;;;;;;;;;;;;41.51;20.53;99726.53;5112545;28;19912;-39
2021/07/28 09:34:33;;;;;;;;;;;;;;;41.80;19.91;99726.25;5113279;28;19916;-39
2021/07/28 09:36:59;;;;;;;;;;;;;;;42.29;19.67;99718.47;5113964;28;19934;-38
2021/07/28 09:39:25;;;;;;;;;;;;;;;42.45;19.37;99723.41;5113933;28;19918;-38
2021/07/28 09:41:51;;;;;;;;;;;;;;;42.06;19.50;99710.78;5113672;28;19916;-38
2021/07/28 09:44:22;;;;;;;;;;;;;;;41.82;19.44;99709.84;5098695;28;20424;-38
2021/07/28 09:46:50;;;;;;;;;;;;;;;41.85;19.97;99713.81;5093285;28;20316;-38
2021/07/28 09:49:18;;;;;;;;;;;;;;;42.08;19.18;99707.56;5091826;28;20419;-39
2021/07/28 09:51:46;;;;;;;;;;;;;;;42.40;18.81;99707.09;5093148;28;19912;-40
2021/07/28 09:54:12;;;;;;;;;;;;;;;43.16;18.56;99703.94;5093154;28;20391;-39
2021/07/28 09:56:38;;;;;;;;;;;;;;;42.76;18.52;99699.00;5093042;28;19923;-39
2021/07/28 09:59:03;;;;;;;;;;;;;;;42.37;18.76;99694.78;5091468;28;19995;-39
2021/07/28 10:01:29;;;;;;;;;;;;;;;42.61;18.48;99694.84;5092987;28;20016;-40
2021/07/28 10:03:54;;;;;;;;;;;;;;;42.61;18.47;99689.25;5092630;28;20461;-41
2021/07/28 10:06:22;;;;;;;;;;;;;;;42.21;18.97;99693.81;5091579;28;20083;-38
2021/07/28 10:08:47;;;;;;;;;;;;;;;42.54;19.16;99697.75;5092991;28;19912;-38
2021/07/28 10:11:13;;;;;;;;;;;;;;;43.32;17.93;99689.28;5093101;28;20275;-38
2021/07/28 10:13:40;;;;;;;;;;;;;;;42.64;18.91;99685.59;5092489;28;19922;-38
2021/07/28 10:16:05;;;;;;;;;;;;;;;42.56;18.76;99690.53;5092888;28;19916;-39
2021/07/28 10:18:30;;;;;;;;;;;;;;;42.50;19.02;99683.03;5091277;28;20367;-39
2021/07/28 10:20:56;;;;;;;;;;;;;;;42.71;18.21;99676.31;5092525;28;19985;-39
2021/07/28 10:23:21;;;;;;;;;;;;;;;43.04;18.40;99668.19;5092617;28;19912;-38
2021/07/28 10:25:46;;;;;;;;;;;;;;;43.15;18.51;99671.59;5091346;28;20382;-39
2021/07/28 10:28:11;;;;;;;;;;;;;;;43.25;18.19;99664.97;5091509;28;19912;-37
2021/07/28 10:30:37;;;;;;;;;;;;;;;43.41;18.34;99660.72;5091476;28;19912;-39
2021/07/28 10:33:21;;;;;;;;;;;;;;;43.18;17.98;99661.53;5092219;28;20319;-38
2021/07/28 10:35:49;;;;;;;;;;;;;;;42.74;18.47;99656.66;5091877;28;19912;-38
2021/07/28 10:38:20;;;;;;;;;;;;;;;42.40;18.27;99654.00;5091629;28;19920;-39
2021/07/28 10:40:50;;;;;;;;;;;;;;;41.60;19.17;99645.06;5092093;28;19981;-39
2021/07/28 10:43:15;;;;;;;;;;;;;;;41.75;18.92;99645.72;5097886;28;20401;-39
2021/07/28 10:45:59;;;;;;;;;;;;;;;42.36;18.31;99645.66;5112652;28;19912;-39
2021/07/28 10:48:47;;;;;;;;;;;;;;;43.23;18.26;99649.84;5111141;28;19911;-41
2021/07/28 10:51:32;;;;;;;;;;;;;;;43.31;17.90;99646.50;5109181;28;20069;-39
2021/07/28 10:53:58;;;;;;;;;;;;;;;42.81;17.61;99644.56;5111946;28;20004;-39
2021/07/28 10:56:23;;;;;;;;;;;;;;;42.41;18.21;99638.03;5111402;28;19931;-39
2021/07/28 10:58:48;;;;;;;;;;;;;;;42.79;18.37;99638.63;5111088;28;19934;-41
2021/07/28 11:01:13;;;;;;;;;;;;;;;43.12;17.34;99631.22;5112246;28;20394;-38
2021/07/28 11:03:39;;;;;;;;;;;;;;;42.95;17.44;99641.53;5110691;28;19920;-39
2021/07/28 11:06:20;;;;;;;;;;;;;;;42.69;17.73;99623.59;5112026;28;20302;-39
2021/07/28 11:08:45;;;;;;;;;;;;;;;42.84;17.71;99626.13;5112070;28;20064;-39
2021/07/28 11:11:15;;;;;;;;;;;;;;;43.17;17.78;99629.19;5110674;28;20400;-40
2021/07/28 11:13:42;;;;;;;;;;;;;;;43.14;17.87;99623.19;5110795;28;19922;-38
2021/07/28 11:16:08;;;;;;;;;;;;;;;43.59;17.38;99630.34;5112281;28;19911;-39
2021/07/28 11:18:37;;;;;;;;;;;;;;;43.92;17.19;99622.84;5111968;28;19916;-40
2021/07/28 11:21:08;;;;;;;;;;;;;;;44.86;16.16;99617.81;5111828;28;19916;-40
2021/07/28 11:23:34;;;;;;;;;;;;;;;44.31;16.18;99626.00;5112070;28;20007;-40
2021/07/28 11:25:59;;;;;;;;;;;;;;;44.06;17.01;99609.72;5111802;28;20014;-40
2021/07/28 11:28:25;;;;;;;;;;;;;;;43.97;17.07;99607.53;5111807;28;19930;-40
2021/07/28 11:30:57;;;;;;;;;;;;;;;44.26;15.74;99604.88;5111885;28;20326;-38
2021/07/28 11:33:22;;;;;;;;;;;;;;;44.26;16.35;99604.09;5111893;28;19980;-41
2021/07/28 11:35:48;;;;;;;;;;;;;;;44.30;16.23;99608.38;5111807;28;20332;-40
2021/07/28 11:38:17;;;;;;;;;;;;;;;45.52;15.43;99597.97;5111836;28;19912;-39
2021/07/28 11:40:43;;;;;;;;;;;;;;;45.10;15.61;99604.34;5111883;28;19911;-40
2021/07/28 11:43:21;;;;;;;;;;;;;;;44.65;15.97;99596.72;5106863;28;19919;-40
2021/07/28 11:45:46;;;;;;;;;;;;;;;44.47;15.47;99599.97;5091491;28;20015;-39
2021/07/28 11:48:50;;;;;;;;;;;;;;;43.91;16.30;99586.88;5091398;28;19912;-39
2021/07/28 11:51:21;;;;;;;;;;;;;;;43.83;16.24;99585.44;5068722;28;20308;-39
2021/07/28 11:53:46;;;;;;;;;;;;;;;44.26;15.97;99585.25;5087824;28;19998;-39
2021/07/28 11:56:12;;;;;;;;;;;;;;;44.06;15.89;99584.50;5090511;28;20017;-39
2021/07/28 11:58:41;;;;;;;;;;;;;;;43.23;16.88;99583.44;5090586;28;19916;-38
2021/07/28 12:01:20;;;;;;;;;;;;;;;43.08;17.52;99568.94;5091009;28;19916;-38
2021/07/28 12:03:52;;;;;;;;;;;;;;;43.18;17.11;99569.94;5090791;28;20088;-39
2021/07/28 12:06:34;;;;;;;;;;;;;;;42.54;17.61;99569.13;5090677;28;19912;-38
2021/07/28 12:09:09;;;;;;;;;;;;;;;43.10;17.19;99563.69;5090857;28;20276;-40
2021/07/28 12:11:50;;;;;;;;;;;;;;;42.86;17.51;99551.78;5090922;28;19935;-39
2021/07/28 12:14:22;;;;;;;;;;;;;;;42.42;18.26;99552.94;5089553;28;20413;-39
2021/07/28 12:16:47;;;;;;;;;;;;;;;42.26;18.00;99548.78;5090428;28;19990;-38
2021/07/28 12:19:12;;;;;;;;;;;;;;;42.35;18.19;99551.06;5090999;28;20305;-39
2021/07/28 12:21:53;;;;;;;;;;;;;;;42.09;18.16;99530.31;5089751;28;19916;-39
2021/07/28 12:24:29;;;;;;;;;;;;;;;42.48;17.76;99545.66;5090726;28;19913;-39
2021/07/28 12:26:56;;;;;;;;;;;;;;;43.12;16.90;99543.69;5090707;28;19923;-40
2021/07/28 12:29:31;;;;;;;;;;;;;;;42.59;17.98;99540.66;5090729;28;19912;-39
2021/07/28 12:31:56;;;;;;;;;;;;;;;43.18;16.95;99530.75;5090516;28;20410;-40
2021/07/28 12:34:21;;;;;;;;;;;;;;;42.91;17.03;99528.91;5090029;28;19916;-39
2021/07/28 12:36:46;;;;;;;;;;;;;;;43.10;16.69;99520.94;5090074;28;19915;-39
2021/07/28 12:39:12;;;;;;;;;;;;;;;42.97;17.51;99515.19;5090131;28;20256;-38
2021/07/28 12:41:37;;;;;;;;;;;;;;;43.32;16.35;99513.72;5090335;28;19962;-39
2021/07/28 12:44:03;;;;;;;;;;;;;;;43.69;16.67;99517.31;5090456;28;19916;-38
2021/07/28 12:46:28;;;;;;;;;;;;;;;43.74;15.79;99510.41;5090618;28;20248;-39